createdAt,value
2019-05-05T00:00:39.893Z,1.27
2019-05-05T00:03:26.186Z,1.27
2019-05-05T00:05:56.250Z,1.26
2019-05-05T00:08:24.801Z,1.23
2019-05-05T00:11:12.596Z,1.21
2019-05-05T00:13:45.116Z,1.27
2019-05-05T00:16:31.024Z,1.28
2019-05-05T00:18:59.773Z,1.32
2019-05-05T00:21:27.945Z,1.35
2019-05-05T00:23:56.145Z,1.34
2019-05-05T00:26:24.880Z,1.37
2019-05-05T00:28:55.397Z,1.33
2019-05-05T00:31:24.304Z,1.35
2019-05-05T00:33:54.429Z,1.34
2019-05-05T00:36:24.574Z,1.38
2019-05-05T00:38:55.204Z,1.37
2019-05-05T00:41:25.352Z,1.36
2019-05-05T00:43:55.341Z,1.37
2019-05-05T00:46:25.200Z,1.39
2019-05-05T00:48:55.068Z,1.40
2019-05-05T00:51:24.423Z,1.35
2019-05-05T00:53:55.315Z,1.33
2019-05-05T00:56:25.014Z,1.32
2019-05-05T00:58:55.325Z,1.32
2019-05-05T01:01:31.054Z,1.30
2019-05-05T01:04:00.301Z,1.25
2019-05-05T01:06:30.120Z,1.26
2019-05-05T01:08:58.301Z,1.24
2019-05-05T01:11:26.540Z,1.27
2019-05-05T01:13:54.864Z,1.27
2019-05-05T01:16:24.695Z,1.27
2019-05-05T01:18:55.189Z,1.26
2019-05-05T01:21:24.442Z,1.28
2019-05-05T01:23:54.853Z,1.28
2019-05-05T01:26:24.878Z,1.24
2019-05-05T01:28:53.198Z,1.24
2019-05-05T01:31:22.198Z,1.26
2019-05-05T01:33:54.105Z,1.24
2019-05-05T01:36:23.701Z,1.21
2019-05-05T01:38:59.710Z,1.17
2019-05-05T01:41:35.510Z,1.17
2019-05-05T01:44:05.103Z,1.17
2019-05-05T01:46:35.317Z,1.18
2019-05-05T01:49:05.322Z,1.17
2019-05-05T01:51:35.430Z,1.14
2019-05-05T01:54:05.159Z,1.17
2019-05-05T01:56:35.180Z,1.14
2019-05-05T01:59:05.191Z,1.13
2019-05-05T02:01:35.216Z,1.08
2019-05-05T02:04:05.431Z,1.07
2019-05-05T02:06:34.970Z,1.07
2019-05-05T02:09:05.271Z,1.02
2019-05-05T02:11:35.316Z,1.03
2019-05-05T02:14:05.107Z,0.98
2019-05-05T02:16:34.737Z,0.94
2019-05-05T02:19:04.973Z,0.93
2019-05-05T02:21:35.105Z,0.93
2019-05-05T02:24:05.223Z,0.94
2019-05-05T02:26:35.015Z,0.92
2019-05-05T02:29:17.377Z,0.89
2019-05-05T02:32:06.340Z,0.88
2019-05-05T02:34:35.988Z,0.92
2019-05-05T02:37:05.446Z,0.91
2019-05-05T02:39:35.355Z,0.94
2019-05-05T02:42:05.694Z,0.94
2019-05-05T02:44:34.793Z,0.92
2019-05-05T02:47:08.043Z,0.97
2019-05-05T02:49:36.205Z,0.96
2019-05-05T02:52:05.139Z,0.93
2019-05-05T02:54:34.052Z,0.93
2019-05-05T02:57:04.515Z,0.92
2019-05-05T02:59:35.293Z,0.92
2019-05-05T03:02:08.225Z,0.93
2019-05-05T03:04:36.389Z,0.90
2019-05-05T03:07:04.821Z,0.92
2019-05-05T03:09:34.670Z,0.92
2019-05-05T03:12:04.777Z,0.94
2019-05-05T03:14:34.112Z,0.95
2019-05-05T03:17:04.307Z,0.90
2019-05-05T03:19:33.938Z,0.88
2019-05-05T03:22:03.638Z,0.88
2019-05-05T03:24:34.087Z,0.90
2019-05-05T03:27:03.848Z,0.95
2019-05-05T03:29:33.585Z,0.92
2019-05-05T03:32:05.258Z,0.91
2019-05-05T03:34:34.366Z,0.91
2019-05-05T03:37:04.233Z,0.94
2019-05-05T03:39:34.033Z,0.94
2019-05-05T03:42:04.398Z,0.95
2019-05-05T03:44:40.225Z,0.97
2019-05-05T03:47:08.405Z,0.98
2019-05-05T03:49:36.585Z,0.97
2019-05-05T03:52:05.094Z,0.97
2019-05-05T03:54:34.274Z,0.99
2019-05-05T03:57:08.553Z,0.98
2019-05-05T03:59:39.892Z,0.97
2019-05-05T04:02:09.785Z,0.98
2019-05-05T04:04:39.596Z,1.00
2019-05-05T04:07:08.051Z,0.99
2019-05-05T04:09:36.632Z,0.96
2019-05-05T04:12:05.050Z,0.99
2019-05-05T04:14:34.803Z,1.00
2019-05-05T04:17:05.666Z,1.01
2019-05-05T04:19:35.474Z,1.05
2019-05-05T04:22:04.216Z,1.07
2019-05-05T04:24:34.192Z,1.06
2019-05-05T04:27:04.001Z,1.06
2019-05-05T04:29:34.516Z,1.04
2019-05-05T04:32:04.484Z,1.05
2019-05-05T04:34:34.741Z,1.02
2019-05-05T04:37:04.132Z,1.05
2019-05-05T04:39:34.287Z,1.10
2019-05-05T04:42:04.996Z,1.10
2019-05-05T04:44:34.649Z,1.12
2019-05-05T04:47:16.662Z,1.15
2019-05-05T04:49:53.811Z,1.20
2019-05-05T04:52:34.346Z,1.21
2019-05-05T04:55:03.903Z,1.23
2019-05-05T04:57:32.472Z,1.15
2019-05-05T05:00:00.683Z,1.15
2019-05-05T05:02:46.731Z,1.17
2019-05-05T05:05:16.544Z,1.18
2019-05-05T05:07:45.033Z,1.19
2019-05-05T05:10:13.837Z,1.17
2019-05-05T05:12:43.612Z,1.11
2019-05-05T05:15:11.980Z,1.08
2019-05-05T05:17:44.194Z,1.12
2019-05-05T05:20:13.993Z,1.07
2019-05-05T05:22:43.548Z,1.02
2019-05-05T05:25:13.595Z,0.95
2019-05-05T05:27:44.153Z,0.95
2019-05-05T05:30:13.766Z,0.94
2019-05-05T05:32:41.685Z,0.96
2019-05-05T05:35:09.925Z,0.99
2019-05-05T05:37:38.215Z,1.03
2019-05-05T05:40:14.487Z,1.09
2019-05-05T05:42:43.967Z,1.13
2019-05-05T05:45:26.360Z,1.19
2019-05-05T05:47:56.181Z,1.22
2019-05-05T05:50:26.017Z,1.27
2019-05-05T05:52:54.190Z,1.29
2019-05-05T05:55:23.798Z,1.37
2019-05-05T05:57:54.008Z,1.35
2019-05-05T06:00:23.739Z,1.39
2019-05-05T06:02:54.383Z,1.45
2019-05-05T06:05:23.759Z,1.49
2019-05-05T06:07:54.278Z,1.51
2019-05-05T06:10:26.644Z,1.56
2019-05-05T06:12:52.026Z,1.58
2019-05-05T06:15:20.215Z,1.59
2019-05-05T06:17:48.381Z,1.62
2019-05-05T06:20:16.881Z,1.63
2019-05-05T06:22:45.372Z,1.67
2019-05-05T06:25:15.870Z,1.69
2019-05-05T06:27:44.586Z,1.76
2019-05-05T06:30:13.809Z,1.73
2019-05-05T06:32:43.746Z,1.73
2019-05-05T06:35:13.902Z,1.69
2019-05-05T06:37:54.612Z,1.73
2019-05-05T06:40:25.447Z,1.74
2019-05-05T06:43:13.893Z,1.74
2019-05-05T06:45:55.498Z,1.74
2019-05-05T06:48:23.787Z,1.69
2019-05-05T06:50:51.905Z,1.67
2019-05-05T06:53:20.074Z,1.61
2019-05-05T06:55:48.253Z,1.61
2019-05-05T06:58:16.421Z,1.71
2019-05-05T07:00:44.917Z,1.83
2019-05-05T07:03:14.010Z,1.94
2019-05-05T07:05:43.767Z,1.87
2019-05-05T07:08:13.775Z,1.90
2019-05-05T07:10:44.271Z,1.93
2019-05-05T07:13:13.874Z,1.87
2019-05-05T07:15:43.790Z,1.91
2019-05-05T07:18:14.067Z,1.91
2019-05-05T07:20:43.572Z,2.03
2019-05-05T07:23:14.293Z,1.98
2019-05-05T07:25:45.303Z,2.10
2019-05-05T07:28:14.526Z,2.17
2019-05-05T07:30:44.234Z,2.28
2019-05-05T07:33:14.866Z,2.23
2019-05-05T07:36:00.221Z,2.33
2019-05-05T07:38:24.419Z,2.12
2019-05-05T07:40:54.539Z,2.24
2019-05-05T07:43:23.974Z,2.40
2019-05-05T07:45:54.008Z,2.55
2019-05-05T07:48:24.179Z,2.60
2019-05-05T07:51:02.134Z,2.66
2019-05-05T07:53:24.416Z,2.55
2019-05-05T07:55:54.199Z,2.49
2019-05-05T07:58:24.143Z,2.60
2019-05-05T08:00:54.105Z,2.50
2019-05-05T08:03:23.659Z,2.47
2019-05-05T08:05:54.379Z,2.52
2019-05-05T08:08:24.321Z,2.55
2019-05-05T08:10:54.171Z,2.65
2019-05-05T08:13:24.352Z,2.66
2019-05-05T08:15:59.755Z,2.68
2019-05-05T08:18:29.062Z,2.62
2019-05-05T08:20:58.872Z,2.79
2019-05-05T08:23:44.756Z,2.85
2019-05-05T08:26:15.021Z,2.85
2019-05-05T08:28:54.452Z,3.03
2019-05-05T08:31:26.797Z,3.08
2019-05-05T08:33:54.962Z,3.13
2019-05-05T08:36:23.534Z,3.00
2019-05-05T08:38:51.785Z,2.57
2019-05-05T08:41:20.065Z,2.53
2019-05-05T08:43:48.533Z,2.34
2019-05-05T08:46:16.703Z,2.21
2019-05-05T08:48:45.186Z,2.37
2019-05-05T08:51:14.156Z,2.42
2019-05-05T08:53:47.358Z,2.41
2019-05-05T08:56:14.451Z,2.35
2019-05-05T08:58:43.756Z,2.41
2019-05-05T09:01:12.021Z,2.62
2019-05-05T09:03:40.196Z,3.00
2019-05-05T09:06:08.360Z,3.17
2019-05-05T09:08:36.818Z,3.02
2019-05-05T09:11:05.120Z,3.13
2019-05-05T09:13:34.014Z,3.03
2019-05-05T09:16:03.834Z,3.15
2019-05-05T09:18:33.933Z,3.39
2019-05-05T09:21:04.206Z,3.14
2019-05-05T09:23:34.663Z,3.10
2019-05-05T09:26:21.213Z,3.48
2019-05-05T09:28:51.309Z,3.50
2019-05-05T09:31:19.472Z,3.60
2019-05-05T09:33:47.655Z,3.66
2019-05-05T09:36:16.132Z,3.64
2019-05-05T09:38:45.068Z,3.57
2019-05-05T09:41:14.335Z,3.36
2019-05-05T09:43:44.642Z,3.69
2019-05-05T09:46:14.366Z,3.82
2019-05-05T09:48:44.052Z,4.00
2019-05-05T09:51:13.640Z,4.12
2019-05-05T09:53:42.006Z,4.03
2019-05-05T09:56:10.195Z,4.13
2019-05-05T09:58:38.711Z,4.24
2019-05-05T10:01:07.751Z,4.16
2019-05-05T10:03:35.930Z,4.39
2019-05-05T10:06:04.978Z,4.31
2019-05-05T10:08:34.066Z,4.50
2019-05-05T10:11:04.130Z,4.81
2019-05-05T10:13:33.753Z,4.82
2019-05-05T10:16:03.836Z,4.73
2019-05-05T10:18:34.690Z,4.64
2019-05-05T10:21:01.742Z,4.62
2019-05-05T10:23:31.819Z,4.72
2019-05-05T10:26:01.619Z,4.80
2019-05-05T10:28:30.229Z,5.08
2019-05-05T10:30:58.399Z,5.22
2019-05-05T10:33:26.567Z,5.34
2019-05-05T10:35:54.731Z,5.34
2019-05-05T10:38:23.566Z,5.30
2019-05-05T10:40:53.618Z,4.78
2019-05-05T10:43:23.839Z,5.10
2019-05-05T10:45:52.095Z,5.46
2019-05-05T10:48:20.258Z,5.42
2019-05-05T10:50:48.430Z,5.61
2019-05-05T10:53:16.592Z,5.62
2019-05-05T10:55:45.151Z,5.79
2019-05-05T10:58:13.834Z,5.60
2019-05-05T11:00:47.591Z,5.33
2019-05-05T11:03:15.752Z,5.52
2019-05-05T11:05:44.805Z,5.58
2019-05-05T11:08:13.700Z,5.50
2019-05-05T11:10:44.579Z,5.54
2019-05-05T11:13:12.188Z,5.92
2019-05-05T11:15:40.364Z,6.17
2019-05-05T11:18:08.967Z,6.38
2019-05-05T11:20:37.138Z,6.73
2019-05-05T11:23:05.624Z,6.69
2019-05-05T11:25:33.906Z,6.60
2019-05-05T11:28:03.705Z,6.92
2019-05-05T11:30:34.020Z,6.48
2019-05-05T11:33:16.050Z,6.74
2019-05-05T11:36:04.611Z,6.56
2019-05-05T11:38:33.903Z,7.16
2019-05-05T11:41:04.671Z,7.25
2019-05-05T11:43:33.785Z,6.77
2019-05-05T11:46:02.385Z,6.42
2019-05-05T11:48:30.539Z,6.71
2019-05-05T11:50:58.963Z,6.77
2019-05-05T11:53:27.136Z,6.54
2019-05-05T11:55:55.619Z,6.24
2019-05-05T11:58:24.832Z,6.21
2019-05-05T12:00:54.562Z,5.96
2019-05-05T12:03:23.040Z,6.60
2019-05-05T12:05:51.211Z,7.11
2019-05-05T12:08:19.381Z,7.64
2019-05-05T12:10:54.133Z,7.61
2019-05-05T12:13:22.385Z,6.77
2019-05-05T12:15:53.826Z,6.76
2019-05-05T12:18:23.741Z,6.60
2019-05-05T12:20:54.239Z,6.51
2019-05-05T12:23:22.238Z,6.67
2019-05-05T12:25:56.673Z,6.89
2019-05-05T12:28:26.305Z,7.00
2019-05-05T12:30:57.411Z,6.86
2019-05-05T12:33:25.573Z,6.42
2019-05-05T12:35:54.366Z,6.39
2019-05-05T12:38:24.115Z,6.34
2019-05-05T12:40:53.549Z,6.33
2019-05-05T12:43:22.066Z,5.95
2019-05-05T12:46:00.922Z,5.38
2019-05-05T12:48:43.803Z,4.88
2019-05-05T12:51:12.101Z,4.26
2019-05-05T12:53:40.269Z,3.56
2019-05-05T12:56:08.436Z,3.05
2019-05-05T12:58:36.595Z,2.33
2019-05-05T13:01:06.410Z,2.27
2019-05-05T13:03:34.729Z,2.44
2019-05-05T13:06:04.098Z,2.74
2019-05-05T13:08:34.020Z,3.13
2019-05-05T13:11:04.057Z,3.58
2019-05-05T13:13:34.399Z,3.57
2019-05-05T13:16:04.255Z,3.90
2019-05-05T13:18:33.966Z,3.95
2019-05-05T13:21:06.555Z,3.89
2019-05-05T13:23:45.101Z,3.99
2019-05-05T13:26:17.620Z,3.97
2019-05-05T13:28:45.783Z,4.23
2019-05-05T13:31:14.216Z,4.46
2019-05-05T13:33:44.276Z,4.54
2019-05-05T13:36:13.763Z,4.63
2019-05-05T13:38:43.843Z,4.74
2019-05-05T13:41:12.110Z,4.75
2019-05-05T13:43:40.286Z,4.44
2019-05-05T13:46:10.087Z,4.26
2019-05-05T13:48:38.267Z,3.98
2019-05-05T13:51:08.068Z,3.92
2019-05-05T13:53:36.244Z,4.00
2019-05-05T13:56:11.861Z,4.44
2019-05-05T13:58:34.409Z,4.80
2019-05-05T14:01:03.734Z,5.27
2019-05-05T14:03:34.150Z,5.86
2019-05-05T14:06:04.583Z,6.48
2019-05-05T14:08:36.000Z,6.51
2019-05-05T14:11:03.636Z,5.75
2019-05-05T14:13:34.116Z,5.51
2019-05-05T14:16:03.893Z,5.39
2019-05-05T14:18:32.470Z,5.44
2019-05-05T14:21:00.953Z,5.38
2019-05-05T14:23:30.780Z,5.46
2019-05-05T14:25:59.006Z,5.68
2019-05-05T14:28:27.191Z,5.86
2019-05-05T14:31:00.003Z,6.10
2019-05-05T14:33:31.360Z,6.07
2019-05-05T14:36:04.995Z,6.04
2019-05-05T14:38:44.419Z,5.94
2019-05-05T14:41:13.628Z,5.95
2019-05-05T14:43:43.774Z,6.14
2019-05-05T14:46:14.370Z,6.43
2019-05-05T14:48:44.068Z,6.32
2019-05-05T14:51:14.411Z,6.29
2019-05-05T14:53:43.758Z,6.56
2019-05-05T14:56:13.574Z,6.61
2019-05-05T14:58:43.714Z,6.65
2019-05-05T15:01:14.285Z,6.50
2019-05-05T15:03:41.945Z,6.38
2019-05-05T15:06:11.870Z,6.41
2019-05-05T15:08:56.497Z,6.49
2019-05-05T15:11:41.764Z,6.62
2019-05-05T15:14:10.038Z,6.32
2019-05-05T15:16:38.208Z,5.76
2019-05-05T15:19:06.388Z,5.83
2019-05-05T15:21:34.863Z,5.54
2019-05-05T15:24:03.078Z,5.17
2019-05-05T15:26:31.479Z,4.20
2019-05-05T15:29:01.757Z,3.65
2019-05-05T15:31:29.818Z,3.38
2019-05-05T15:33:57.997Z,3.14
2019-05-05T15:36:26.176Z,3.02
2019-05-05T15:38:55.219Z,3.03
2019-05-05T15:41:23.716Z,3.09
2019-05-05T15:43:51.888Z,3.16
2019-05-05T15:46:20.402Z,3.17
2019-05-05T15:48:48.582Z,3.07
2019-05-05T15:51:16.775Z,2.98
2019-05-05T15:53:44.935Z,2.94
2019-05-05T15:56:13.874Z,2.94
2019-05-05T15:58:43.549Z,2.92
2019-05-05T16:01:11.944Z,2.97
2019-05-05T16:03:40.116Z,3.00
2019-05-05T16:06:08.304Z,2.98
2019-05-05T16:08:36.485Z,2.99
2019-05-05T16:11:05.013Z,3.14
2019-05-05T16:13:35.164Z,3.22
2019-05-05T16:16:08.022Z,3.23
2019-05-05T16:18:37.846Z,3.21
2019-05-05T16:21:10.218Z,3.23
2019-05-05T16:23:46.070Z,3.15
2019-05-05T16:26:14.240Z,2.76
2019-05-05T16:28:44.501Z,2.53
2019-05-05T16:31:14.423Z,2.57
2019-05-05T16:33:44.125Z,2.59
2019-05-05T16:36:13.805Z,2.55
2019-05-05T16:38:43.575Z,2.61
2019-05-05T16:41:13.606Z,2.59
2019-05-05T16:43:44.103Z,2.55
2019-05-05T16:46:16.753Z,2.60
2019-05-05T16:48:43.939Z,2.66
2019-05-05T16:51:13.945Z,2.62
2019-05-05T16:53:42.396Z,2.82
2019-05-05T16:56:14.057Z,2.88
2019-05-05T16:58:44.887Z,3.00
2019-05-05T17:01:16.906Z,2.99
2019-05-05T17:03:45.856Z,3.10
2019-05-05T17:06:14.491Z,3.13
2019-05-05T17:08:44.380Z,3.24
2019-05-05T17:11:14.777Z,3.29
2019-05-05T17:13:49.766Z,3.27
2019-05-05T17:16:35.584Z,3.38
2019-05-05T17:19:20.597Z,3.38
2019-05-05T17:21:50.685Z,3.38
2019-05-05T17:24:19.151Z,3.37
2019-05-05T17:26:47.641Z,3.43
2019-05-05T17:29:16.116Z,3.30
2019-05-05T17:31:44.490Z,3.26
2019-05-05T17:34:13.744Z,3.36
2019-05-05T17:36:42.027Z,3.32
2019-05-05T17:39:10.204Z,3.27
2019-05-05T17:41:45.782Z,3.22
2019-05-05T17:44:15.590Z,3.23
2019-05-05T17:46:45.403Z,3.17
2019-05-05T17:49:15.539Z,3.14
2019-05-05T17:51:54.881Z,3.15
2019-05-05T17:54:27.689Z,3.02
2019-05-05T17:56:56.166Z,2.93
2019-05-05T17:59:24.646Z,2.86
2019-05-05T18:01:53.989Z,2.83
2019-05-05T18:04:22.844Z,2.87
2019-05-05T18:06:58.575Z,2.90
2019-05-05T18:09:28.701Z,2.94
2019-05-05T18:11:58.527Z,2.91
2019-05-05T18:14:31.028Z,2.87
2019-05-05T18:16:59.191Z,2.92
2019-05-05T18:19:27.391Z,2.76
2019-05-05T18:21:55.808Z,2.64
2019-05-05T18:24:24.410Z,2.54
2019-05-05T18:26:53.672Z,2.54
2019-05-05T18:29:24.121Z,2.55
2019-05-05T18:31:53.557Z,2.61
2019-05-05T18:34:23.604Z,2.61
2019-05-05T18:36:54.181Z,2.62
2019-05-05T18:39:22.200Z,2.61
2019-05-05T18:41:55.030Z,2.64
2019-05-05T18:44:24.850Z,2.54
2019-05-05T18:47:14.630Z,2.46
2019-05-05T18:49:41.425Z,2.40
2019-05-05T18:52:10.601Z,2.37
2019-05-05T18:54:38.785Z,2.32
2019-05-05T18:57:08.127Z,2.28
2019-05-05T18:59:36.378Z,2.27
2019-05-05T19:02:14.323Z,2.30
2019-05-05T19:04:48.694Z,2.32
2019-05-05T19:07:30.527Z,2.40
2019-05-05T19:09:59.043Z,2.37
2019-05-05T19:12:27.562Z,2.34
2019-05-05T19:14:55.729Z,2.33
2019-05-05T19:17:24.171Z,2.31
2019-05-05T19:19:54.970Z,2.31
2019-05-05T19:22:23.333Z,2.26
2019-05-05T19:24:51.519Z,2.24
2019-05-05T19:27:19.687Z,2.20
2019-05-05T19:29:47.944Z,2.14
2019-05-05T19:32:16.118Z,2.11
2019-05-05T19:34:44.393Z,2.11
2019-05-05T19:37:14.022Z,2.05
2019-05-05T19:39:42.546Z,2.02
2019-05-05T19:42:10.717Z,1.99
2019-05-05T19:44:38.904Z,1.94
2019-05-05T19:47:20.460Z,1.94
2019-05-05T19:49:50.284Z,1.89
2019-05-05T19:52:18.450Z,1.90
2019-05-05T19:54:47.661Z,1.90
2019-05-05T19:57:16.149Z,1.89
2019-05-05T19:59:44.789Z,1.90
2019-05-05T20:02:12.977Z,1.89
2019-05-05T20:04:41.156Z,1.89
2019-05-05T20:07:09.674Z,1.93
2019-05-05T20:09:37.852Z,1.96
2019-05-05T20:12:08.945Z,1.95
2019-05-05T20:14:37.475Z,1.88
2019-05-05T20:17:10.237Z,1.87
2019-05-05T20:19:40.058Z,1.88
2019-05-05T20:22:08.223Z,1.87
2019-05-05T20:24:36.411Z,1.90
2019-05-05T20:27:04.763Z,1.94
2019-05-05T20:29:36.742Z,1.95
2019-05-05T20:32:04.331Z,1.97
2019-05-05T20:34:50.517Z,1.92
2019-05-05T20:37:20.330Z,1.93
2019-05-05T20:39:48.517Z,1.95
2019-05-05T20:42:16.696Z,1.98
2019-05-05T20:44:44.881Z,2.00
2019-05-05T20:47:13.122Z,2.01
2019-05-05T20:49:41.302Z,1.97
2019-05-05T20:52:10.805Z,1.94
2019-05-05T20:54:39.294Z,1.92
2019-05-05T20:57:07.778Z,1.90
2019-05-05T20:59:36.255Z,1.88
2019-05-05T21:02:04.781Z,1.90
2019-05-05T21:04:34.535Z,1.90
2019-05-05T21:07:04.507Z,1.88
2019-05-05T21:09:34.541Z,1.88
2019-05-05T21:12:04.701Z,1.88
2019-05-05T21:14:37.213Z,1.84
2019-05-05T21:17:04.037Z,1.84
2019-05-05T21:19:34.518Z,1.82
2019-05-05T21:22:20.980Z,1.78
2019-05-05T21:24:49.125Z,1.79
2019-05-05T21:27:17.310Z,1.83
2019-05-05T21:29:45.785Z,1.83
2019-05-05T21:32:14.201Z,1.78
2019-05-05T21:34:44.346Z,1.75
2019-05-05T21:37:14.126Z,1.77
2019-05-05T21:39:42.188Z,1.80
2019-05-05T21:42:10.656Z,1.75
2019-05-05T21:44:38.827Z,1.74
2019-05-05T21:47:07.308Z,1.77
2019-05-05T21:49:35.478Z,1.78
2019-05-05T21:52:07.907Z,1.79
2019-05-05T21:54:43.923Z,1.84
2019-05-05T21:57:16.530Z,1.84
2019-05-05T21:59:54.822Z,1.84
2019-05-05T22:02:15.351Z,1.84
2019-05-05T22:04:43.633Z,1.85
2019-05-05T22:07:11.816Z,1.86
2019-05-05T22:09:40.057Z,1.83
2019-05-05T22:12:08.236Z,1.81
2019-05-05T22:14:36.406Z,1.77
2019-05-05T22:17:04.791Z,1.78
2019-05-05T22:19:44.525Z,1.80
2019-05-05T22:22:14.621Z,1.79
2019-05-05T22:24:44.401Z,1.81
2019-05-05T22:27:12.668Z,1.80
2019-05-05T22:29:41.098Z,1.80
2019-05-05T22:32:09.280Z,1.81
2019-05-05T22:34:37.447Z,1.79
2019-05-05T22:37:09.238Z,1.78
2019-05-05T22:39:35.524Z,1.77
2019-05-05T22:42:04.718Z,1.79
2019-05-05T22:44:33.925Z,1.82
2019-05-05T22:47:04.496Z,1.81
2019-05-05T22:49:32.066Z,1.79
2019-05-05T22:52:00.232Z,1.76
2019-05-05T22:54:28.672Z,1.74
2019-05-05T22:56:56.845Z,1.72
2019-05-05T22:59:26.175Z,1.69
2019-05-05T23:01:54.487Z,1.67
2019-05-05T23:04:24.305Z,1.61
2019-05-05T23:06:54.293Z,1.55
2019-05-05T23:09:22.482Z,1.54
2019-05-05T23:11:50.652Z,1.49
2019-05-05T23:14:28.124Z,1.43
2019-05-05T23:16:58.187Z,1.44
2019-05-05T23:19:28.020Z,1.41
2019-05-05T23:21:58.152Z,1.40
2019-05-05T23:24:37.127Z,1.40
2019-05-05T23:27:05.302Z,1.42
2019-05-05T23:29:34.161Z,1.41
2019-05-05T23:32:02.434Z,1.41
2019-05-05T23:34:30.904Z,1.39
2019-05-05T23:36:59.073Z,1.43
2019-05-05T23:39:27.561Z,1.39
2019-05-05T23:41:56.567Z,1.37
2019-05-05T23:44:24.749Z,1.39
2019-05-05T23:46:53.817Z,1.38
2019-05-05T23:49:24.170Z,1.41
2019-05-05T23:51:53.963Z,1.45
2019-05-05T23:54:24.562Z,1.47
2019-05-05T23:56:53.721Z,1.41
2019-05-05T23:59:24.145Z,1.39
